sensor_id;sensor_type;location;lat;lon;timestamp;pressure;altitude;pressure_sealevel;temperature;humidity
48606;BME280;8482;54.396;18.590;2023-12-04T14:52:02;101785.78;;;-0.48;83.58
48606;BME280;8482;54.396;18.590;2023-12-04T14:54:30;101793.59;;;-0.48;85.32
48606;BME280;8482;54.396;18.590;2023-12-04T14:57:14;101794.41;;;-0.46;86.29
48606;BME280;8482;54.396;18.590;2023-12-04T14:59:55;101795.25;;;-0.44;86.33
48606;BME280;8482;54.396;18.590;2023-12-04T15:02:39;101789.16;;;-0.43;86.35
48606;BME280;8482;54.396;18.590;2023-12-04T15:05:30;101790.88;;;-0.42;86.70
48606;BME280;8482;54.396;18.590;2023-12-04T15:08:06;101794.34;;;-0.41;86.17
48606;BME280;8482;54.396;18.590;2023-12-04T15:10:50;101799.53;;;-0.40;86.12
48606;BME280;8482;54.396;18.590;2023-12-04T15:13:25;101800.41;;;-0.41;86.36
48606;BME280;8482;54.396;18.590;2023-12-04T15:16:07;101791.66;;;-0.38;86.25
48606;BME280;8482;54.396;18.590;2023-12-04T15:18:39;101798.63;;;-0.37;86.19
48606;BME280;8482;54.396;18.590;2023-12-04T15:21:37;101795.97;;;-0.34;85.48
48606;BME280;8482;54.396;18.590;2023-12-04T15:24:04;101795.13;;;-0.35;85.49
48606;BME280;8482;54.396;18.590;2023-12-04T15:26:30;101798.56;;;-0.34;85.24
48606;BME280;8482;54.396;18.590;2023-12-04T15:28:56;101797.66;;;-0.32;85.45
48606;BME280;8482;54.396;18.590;2023-12-04T15:31:22;101793.31;;;-0.31;85.25
48606;BME280;8482;54.396;18.590;2023-12-04T15:33:48;101789.03;;;-0.34;85.16
48606;BME280;8482;54.396;18.590;2023-12-04T15:36:13;101785.44;;;-0.29;85.37
48606;BME280;8482;54.396;18.590;2023-12-04T15:38:39;101796.75;;;-0.29;85.01
48606;BME280;8482;54.396;18.590;2023-12-04T15:41:05;101791.53;;;-0.29;85.10
48606;BME280;8482;54.396;18.590;2023-12-04T15:43:31;101795.91;;;-0.33;84.97
48606;BME280;8482;54.396;18.590;2023-12-04T15:45:57;101799.44;;;-0.34;84.73
48606;BME280;8482;54.396;18.590;2023-12-04T15:48:23;101791.63;;;-0.34;84.71
48606;BME280;8482;54.396;18.590;2023-12-04T15:50:49;101797.66;;;-0.32;85.00
48606;BME280;8482;54.396;18.590;2023-12-04T15:53:15;101799.38;;;-0.31;84.80
48606;BME280;8482;54.396;18.590;2023-12-04T15:55:40;101796.81;;;-0.32;84.40
48606;BME280;8482;54.396;18.590;2023-12-04T15:58:06;101797.66;;;-0.30;84.99
48606;BME280;8482;54.396;18.590;2023-12-04T16:00:32;101796.75;;;-0.31;84.12
48606;BME280;8482;54.396;18.590;2023-12-04T16:02:59;101791.59;;;-0.32;84.49
48606;BME280;8482;54.396;18.590;2023-12-04T16:05:26;101799.38;;;-0.29;84.26
48606;BME280;8482;54.396;18.590;2023-12-04T16:07:52;101799.38;;;-0.31;84.67
48606;BME280;8482;54.396;18.590;2023-12-04T16:10:18;101800.25;;;-0.32;84.16
48606;BME280;8482;54.396;18.590;2023-12-04T16:12:44;101795.03;;;-0.32;84.54
48606;BME280;8482;54.396;18.590;2023-12-04T16:15:10;101804.59;;;-0.31;84.41
48606;BME280;8482;54.396;18.590;2023-12-04T16:17:37;101801.13;;;-0.33;83.99
48606;BME280;8482;54.396;18.590;2023-12-04T16:20:05;101797.72;;;-0.35;83.99
48606;BME280;8482;54.396;18.590;2023-12-04T16:22:39;101793.44;;;-0.39;84.38
48606;BME280;8482;54.396;18.590;2023-12-04T16:25:07;101797.75;;;-0.38;84.54
48606;BME280;8482;54.396;18.590;2023-12-04T16:27:33;101804.72;;;-0.38;84.37
48606;BME280;8482;54.396;18.590;2023-12-04T16:29:59;101804.75;;;-0.40;84.45
48606;BME280;8482;54.396;18.590;2023-12-04T16:32:25;101808.28;;;-0.42;84.16
48606;BME280;8482;54.396;18.590;2023-12-04T16:34:51;101805.75;;;-0.49;84.48
48606;BME280;8482;54.396;18.590;2023-12-04T16:37:17;101817.84;;;-0.44;84.86
48606;BME280;8482;54.396;18.590;2023-12-04T16:39:42;101814.44;;;-0.48;84.73
48606;BME280;8482;54.396;18.590;2023-12-04T16:42:08;101816.16;;;-0.47;84.60
48606;BME280;8482;54.396;18.590;2023-12-04T16:44:34;101814.41;;;-0.47;84.95
48606;BME280;8482;54.396;18.590;2023-12-04T16:47:01;101824.78;;;-0.43;84.76
48606;BME280;8482;54.396;18.590;2023-12-04T16:49:27;101825.66;;;-0.43;84.34
48606;BME280;8482;54.396;18.590;2023-12-04T16:51:53;101827.38;;;-0.42;84.73
48606;BME280;8482;54.396;18.590;2023-12-04T16:54:18;101822.16;;;-0.42;84.40
48606;BME280;8482;54.396;18.590;2023-12-04T16:56:48;101813.44;;;-0.41;84.37
48606;BME280;8482;54.396;18.590;2023-12-04T16:59:16;101823.03;;;-0.41;84.33
48606;BME280;8482;54.396;18.590;2023-12-04T17:01:42;101818.69;;;-0.44;83.96
48606;BME280;8482;54.396;18.590;2023-12-04T17:04:07;101823.03;;;-0.41;84.54
48606;BME280;8482;54.396;18.590;2023-12-04T17:06:33;101830.84;;;-0.43;84.65
48606;BME280;8482;54.396;18.590;2023-12-04T17:08:59;101824.00;;;-0.47;84.82
48606;BME280;8482;54.396;18.590;2023-12-04T17:11:25;101817.91;;;-0.48;84.34
48606;BME280;8482;54.396;18.590;2023-12-04T17:13:51;101816.22;;;-0.50;84.34
48606;BME280;8482;54.396;18.590;2023-12-04T17:16:17;101821.47;;;-0.53;84.47
48606;BME280;8482;54.396;18.590;2023-12-04T17:18:44;101831.03;;;-0.54;84.47
48606;BME280;8482;54.396;18.590;2023-12-04T17:21:13;101829.31;;;-0.56;84.52
48606;BME280;8482;54.396;18.590;2023-12-04T17:23:38;101822.41;;;-0.59;83.89
48606;BME280;8482;54.396;18.590;2023-12-04T17:26:04;101831.13;;;-0.60;83.86
48606;BME280;8482;54.396;18.590;2023-12-04T17:28:30;101822.50;;;-0.64;84.03
48606;BME280;8482;54.396;18.590;2023-12-04T17:30:56;101829.44;;;-0.63;83.63
48606;BME280;8482;54.396;18.590;2023-12-04T17:33:22;101832.13;;;-0.69;83.97
48606;BME280;8482;54.396;18.590;2023-12-04T17:35:48;101831.34;;;-0.74;84.08
48606;BME280;8482;54.396;18.590;2023-12-04T17:38:13;101823.59;;;-0.80;83.64
48606;BME280;8482;54.396;18.590;2023-12-04T17:40:39;101828.81;;;-0.80;83.83
48606;BME280;8482;54.396;18.590;2023-12-04T17:43:05;101828.00;;;-0.84;84.09
48606;BME280;8482;54.396;18.590;2023-12-04T17:45:32;101842.81;;;-0.87;84.32
48606;BME280;8482;54.396;18.590;2023-12-04T17:47:58;101835.97;;;-0.96;83.89
48606;BME280;8482;54.396;18.590;2023-12-04T17:50:26;101835.09;;;-0.97;84.10
48606;BME280;8482;54.396;18.590;2023-12-04T17:52:51;101832.56;;;-1.00;84.64
48606;BME280;8482;54.396;18.590;2023-12-04T17:55:21;101834.31;;;-1.02;84.68
48606;BME280;8482;54.396;18.590;2023-12-04T17:57:49;101839.53;;;-1.03;84.18
48606;BME280;8482;54.396;18.590;2023-12-04T18:00:17;101837.88;;;-1.08;84.43
48606;BME280;8482;54.396;18.590;2023-12-04T18:02:44;101836.16;;;-1.12;84.11
48606;BME280;8482;54.396;18.590;2023-12-04T18:05:18;101836.19;;;-1.13;84.82
48606;BME280;8482;54.396;18.590;2023-12-04T18:07:46;101835.34;;;-1.15;84.67
48606;BME280;8482;54.396;18.590;2023-12-04T18:10:12;101849.25;;;-1.18;84.98
48606;BME280;8482;54.396;18.590;2023-12-04T18:12:38;101841.50;;;-1.23;84.09
48606;BME280;8482;54.396;18.590;2023-12-04T18:15:10;101841.56;;;-1.27;84.65
48606;BME280;8482;54.396;18.590;2023-12-04T18:17:37;101845.91;;;-1.28;84.71
48606;BME280;8482;54.396;18.590;2023-12-04T18:20:09;101844.19;;;-1.30;84.19
48606;BME280;8482;54.396;18.590;2023-12-04T18:22:36;101839.03;;;-1.35;84.80
48606;BME280;8482;54.396;18.590;2023-12-04T18:25:02;101839.97;;;-1.41;85.01
48606;BME280;8482;54.396;18.590;2023-12-04T18:27:29;101828.78;;;-1.47;85.04
48606;BME280;8482;54.396;18.590;2023-12-04T18:29:55;101832.25;;;-1.48;84.59
48606;BME280;8482;54.396;18.590;2023-12-04T18:32:21;101841.00;;;-1.54;84.89
48606;BME280;8482;54.396;18.590;2023-12-04T18:34:47;101841.00;;;-1.52;84.79
48606;BME280;8482;54.396;18.590;2023-12-04T18:37:35;101846.19;;;-1.54;84.95
48606;BME280;8482;54.396;18.590;2023-12-04T18:40:08;101830.66;;;-1.60;85.19
48606;BME280;8482;54.396;18.590;2023-12-04T18:42:39;101844.47;;;-1.55;84.70
48606;BME280;8482;54.396;18.590;2023-12-04T18:45:06;101854.03;;;-1.57;84.80
48606;BME280;8482;54.396;18.590;2023-12-04T18:47:35;101842.81;;;-1.62;84.59
48606;BME280;8482;54.396;18.590;2023-12-04T18:50:02;101841.03;;;-1.57;85.01
48606;BME280;8482;54.396;18.590;2023-12-04T18:52:28;101846.22;;;-1.56;85.07
48606;BME280;8482;54.396;18.590;2023-12-04T18:54:55;101847.06;;;-1.53;84.88
48606;BME280;8482;54.396;18.590;2023-12-04T18:57:21;101840.19;;;-1.59;84.50
48606;BME280;8482;54.396;18.590;2023-12-04T18:59:47;101838.47;;;-1.62;84.93
48606;BME280;8482;54.396;18.590;2023-12-04T19:02:12;101846.31;;;-1.63;85.09
48606;BME280;8482;54.396;18.590;2023-12-04T19:04:39;101833.34;;;-1.68;84.90
48606;BME280;8482;54.396;18.590;2023-12-04T19:07:05;101838.56;;;-1.68;84.41
48606;BME280;8482;54.396;18.590;2023-12-04T19:09:30;101841.19;;;-1.73;84.77
48606;BME280;8482;54.396;18.590;2023-12-04T19:11:56;101841.19;;;-1.71;84.98
48606;BME280;8482;54.396;18.590;2023-12-04T19:14:22;101847.22;;;-1.71;84.67
48606;BME280;8482;54.396;18.590;2023-12-04T19:16:48;101849.84;;;-1.69;84.65
48606;BME280;8482;54.396;18.590;2023-12-04T19:19:14;101844.66;;;-1.72;84.53
48606;BME280;8482;54.396;18.590;2023-12-04T19:21:40;101842.94;;;-1.75;84.56
48606;BME280;8482;54.396;18.590;2023-12-04T19:24:06;101853.31;;;-1.72;85.17
48606;BME280;8482;54.396;18.590;2023-12-04T19:26:31;101846.38;;;-1.71;85.16
48606;BME280;8482;54.396;18.590;2023-12-04T19:28:58;101840.28;;;-1.72;85.23
48606;BME280;8482;54.396;18.590;2023-12-04T19:31:24;101842.06;;;-1.74;84.33
48606;BME280;8482;54.396;18.590;2023-12-04T19:33:50;101840.38;;;-1.78;84.63
48606;BME280;8482;54.396;18.590;2023-12-04T19:36:19;101840.41;;;-1.81;84.29
48606;BME280;8482;54.396;18.590;2023-12-04T19:38:44;101842.16;;;-1.83;84.71
48606;BME280;8482;54.396;18.590;2023-12-04T19:41:10;101839.59;;;-1.86;84.17
48606;BME280;8482;54.396;18.590;2023-12-04T19:43:37;101840.50;;;-1.93;84.75
48606;BME280;8482;54.396;18.590;2023-12-04T19:46:07;101837.03;;;-1.92;84.51
48606;BME280;8482;54.396;18.590;2023-12-04T19:48:33;101834.50;;;-1.97;83.93
48606;BME280;8482;54.396;18.590;2023-12-04T19:51:04;101838.81;;;-1.97;84.30
48606;BME280;8482;54.396;18.590;2023-12-04T19:53:30;101831.94;;;-2.02;85.09
48606;BME280;8482;54.396;18.590;2023-12-04T19:55:55;101833.66;;;-2.01;84.40
48606;BME280;8482;54.396;18.590;2023-12-04T19:58:21;101833.66;;;-2.02;84.51
48606;BME280;8482;54.396;18.590;2023-12-04T20:00:47;101836.25;;;-2.02;84.91
48606;BME280;8482;54.396;18.590;2023-12-04T20:03:13;101838.88;;;-2.04;84.75
48606;BME280;8482;54.396;18.590;2023-12-04T20:05:39;101836.28;;;-2.04;84.89
48606;BME280;8482;54.396;18.590;2023-12-04T20:08:05;101839.72;;;-2.03;84.44
48606;BME280;8482;54.396;18.590;2023-12-04T20:10:30;101832.81;;;-2.04;84.21
48606;BME280;8482;54.396;18.590;2023-12-04T20:12:56;101828.50;;;-2.07;84.22
48606;BME280;8482;54.396;18.590;2023-12-04T20:15:22;101828.53;;;-2.10;84.36
48606;BME280;8482;54.396;18.590;2023-12-04T20:17:49;101831.19;;;-2.16;84.05
48606;BME280;8482;54.396;18.590;2023-12-04T20:20:17;101817.41;;;-2.29;84.33
48606;BME280;8482;54.396;18.590;2023-12-04T20:22:44;101832.97;;;-2.23;84.08
48606;BME280;8482;54.396;18.590;2023-12-04T20:25:10;101832.09;;;-2.23;84.29
48606;BME280;8482;54.396;18.590;2023-12-04T20:27:36;101831.25;;;-2.27;84.47
48606;BME280;8482;54.396;18.590;2023-12-04T20:30:03;101825.28;;;-2.37;83.95
48606;BME280;8482;54.396;18.590;2023-12-04T20:32:29;101832.22;;;-2.37;83.65
48606;BME280;8482;54.396;18.590;2023-12-04T20:34:55;101828.81;;;-2.44;83.86
48606;BME280;8482;54.396;18.590;2023-12-04T20:37:21;101836.63;;;-2.45;83.54
48606;BME280;8482;54.396;18.590;2023-12-04T20:39:47;101834.03;;;-2.49;83.84
48606;BME280;8482;54.396;18.590;2023-12-04T20:42:12;101833.19;;;-2.54;83.51
48606;BME280;8482;54.396;18.590;2023-12-04T20:44:38;101834.09;;;-2.56;83.92
48606;BME280;8482;54.396;18.590;2023-12-04T20:47:04;101823.72;;;-2.61;83.71
48606;BME280;8482;54.396;18.590;2023-12-04T20:49:31;101829.78;;;-2.60;84.05
48606;BME280;8482;54.396;18.590;2023-12-04T20:51:57;101814.22;;;-2.65;84.06
48606;BME280;8482;54.396;18.590;2023-12-04T20:54:23;101826.31;;;-2.63;84.22
48606;BME280;8482;54.396;18.590;2023-12-04T20:56:49;101827.22;;;-2.65;83.70
48606;BME280;8482;54.396;18.590;2023-12-04T20:59:15;101831.56;;;-2.69;83.30
48606;BME280;8482;54.396;18.590;2023-12-04T21:01:41;101833.28;;;-2.69;83.70
48606;BME280;8482;54.396;18.590;2023-12-04T21:04:08;101828.09;;;-2.68;84.00
48606;BME280;8482;54.396;18.590;2023-12-04T21:06:34;101835.06;;;-2.71;82.91
48606;BME280;8482;54.396;18.590;2023-12-04T21:09:02;101824.69;;;-2.74;82.93
48606;BME280;8482;54.396;18.590;2023-12-04T21:11:29;101829.88;;;-2.76;83.15
48606;BME280;8482;54.396;18.590;2023-12-04T21:13:55;101826.41;;;-2.77;83.35
48606;BME280;8482;54.396;18.590;2023-12-04T21:16:21;101822.97;;;-2.79;83.51
48606;BME280;8482;54.396;18.590;2023-12-04T21:18:47;101829.03;;;-2.78;82.78
48606;BME280;8482;54.396;18.590;2023-12-04T21:21:15;101827.31;;;-2.84;82.78
48606;BME280;8482;54.396;18.590;2023-12-04T21:23:41;101837.69;;;-2.78;83.24
48606;BME280;8482;54.396;18.590;2023-12-04T21:26:07;101822.94;;;-2.77;83.09
48606;BME280;8482;54.396;18.590;2023-12-04T21:28:33;101826.41;;;-2.77;83.00
48606;BME280;8482;54.396;18.590;2023-12-04T21:30:59;101823.84;;;-2.78;82.65
48606;BME280;8482;54.396;18.590;2023-12-04T21:33:25;101815.19;;;-2.82;83.00
48606;BME280;8482;54.396;18.590;2023-12-04T21:35:52;101816.06;;;-2.81;82.89
48606;BME280;8482;54.396;18.590;2023-12-04T21:38:17;101803.09;;;-2.84;82.74
48606;BME280;8482;54.396;18.590;2023-12-04T21:40:44;101813.47;;;-2.84;81.99
48606;BME280;8482;54.396;18.590;2023-12-04T21:43:10;101808.31;;;-2.92;81.58
48606;BME280;8482;54.396;18.590;2023-12-04T21:45:36;101813.53;;;-2.94;82.15
48606;BME280;8482;54.396;18.590;2023-12-04T21:48:03;101804.91;;;-2.99;81.92
48606;BME280;8482;54.396;18.590;2023-12-04T21:50:29;101805.78;;;-3.00;81.61
48606;BME280;8482;54.396;18.590;2023-12-04T21:52:56;101810.97;;;-3.00;82.43
48606;BME280;8482;54.396;18.590;2023-12-04T21:55:22;101810.97;;;-3.01;81.69
48606;BME280;8482;54.396;18.590;2023-12-04T21:57:47;101800.63;;;-3.08;81.26
48606;BME280;8482;54.396;18.590;2023-12-04T22:00:14;101798.03;;;-3.09;81.50
48606;BME280;8482;54.396;18.590;2023-12-04T22:02:41;101808.44;;;-3.12;81.73
48606;BME280;8482;54.396;18.590;2023-12-04T22:05:07;101805.84;;;-3.14;80.98
48606;BME280;8482;54.396;18.590;2023-12-04T22:07:33;101817.06;;;-3.10;80.47
